createdAt,value
2022-10-07T00:01:11.431Z,76.55
2022-10-07T00:03:40.556Z,76.62
2022-10-07T00:06:13.617Z,76.58
2022-10-07T00:08:47.394Z,76.61
2022-10-07T00:11:18.761Z,76.35
2022-10-07T00:13:47.909Z,76.36
2022-10-07T00:16:17.624Z,76.31
2022-10-07T00:18:46.145Z,75.94
2022-10-07T00:21:16.527Z,75.63
2022-10-07T00:23:46.389Z,75.57
2022-10-07T00:26:20.669Z,75.64
2022-10-07T00:28:49.400Z,75.77
2022-10-07T00:31:24.644Z,75.87
2022-10-07T00:33:54.235Z,76.09
2022-10-07T00:36:29.503Z,75.87
2022-10-07T00:39:03.755Z,75.64
2022-10-07T00:41:52.760Z,75.44
2022-10-07T00:44:42.134Z,75.38
2022-10-07T00:47:13.328Z,75.41
2022-10-07T00:49:54.287Z,75.55
2022-10-07T00:52:26.420Z,75.69
2022-10-07T00:54:57.314Z,76.24
2022-10-07T00:57:29.530Z,76.60
2022-10-07T00:59:57.865Z,76.79
2022-10-07T01:02:27.499Z,77.10
2022-10-07T01:04:59.079Z,76.97
2022-10-07T01:07:28.385Z,77.06
2022-10-07T01:09:59.617Z,77.09
2022-10-07T01:12:55.640Z,76.74
2022-10-07T01:15:30.474Z,76.70
2022-10-07T01:18:12.670Z,76.79
2022-10-07T01:20:46.926Z,76.77
2022-10-07T01:23:44.558Z,76.78
2022-10-07T01:26:24.710Z,76.68
2022-10-07T01:28:59.237Z,76.75
2022-10-07T01:31:44.409Z,76.85
2022-10-07T01:34:14.736Z,76.86
2022-10-07T01:36:51.996Z,76.84
2022-10-07T01:39:26.545Z,76.84
2022-10-07T01:41:54.775Z,77.01
2022-10-07T01:44:23.314Z,76.99
2022-10-07T01:46:51.375Z,77.22
2022-10-07T01:49:19.344Z,77.37
2022-10-07T01:52:03.699Z,77.50
2022-10-07T01:54:50.918Z,77.53
2022-10-07T01:57:59.337Z,77.81
2022-10-07T02:00:28.130Z,77.85
2022-10-07T02:03:34.101Z,77.85
2022-10-07T02:06:20.079Z,77.81
2022-10-07T02:08:55.297Z,77.69
2022-10-07T02:11:30.281Z,77.69
2022-10-07T02:14:23.411Z,77.63
2022-10-07T02:16:57.015Z,77.52
2022-10-07T02:19:31.740Z,77.54
2022-10-07T02:22:03.038Z,77.58
2022-10-07T02:24:35.654Z,77.62
2022-10-07T02:27:10.018Z,77.43
2022-10-07T02:29:41.130Z,77.35
2022-10-07T02:32:13.716Z,77.53
2022-10-07T02:34:46.185Z,77.38
2022-10-07T02:37:19.852Z,77.45
2022-10-07T02:39:48.778Z,77.52
2022-10-07T02:42:28.216Z,77.76
2022-10-07T02:45:05.426Z,77.79
2022-10-07T02:47:51.192Z,77.89
2022-10-07T02:50:23.838Z,78.09
2022-10-07T02:52:55.887Z,78.19
2022-10-07T02:55:27.793Z,78.41
2022-10-07T02:58:00.507Z,78.45
2022-10-07T03:00:31.005Z,78.41
2022-10-07T03:03:02.625Z,78.40
2022-10-07T03:05:54.799Z,78.65
2022-10-07T03:08:24.644Z,78.84
2022-10-07T03:10:52.788Z,78.90
2022-10-07T03:13:20.820Z,78.92
2022-10-07T03:15:52.284Z,79.11
2022-10-07T03:18:28.371Z,79.19
2022-10-07T03:21:22.860Z,79.38
2022-10-07T03:23:54.209Z,79.43
2022-10-07T03:26:24.653Z,79.57
2022-10-07T03:28:53.729Z,79.55
2022-10-07T03:31:22.015Z,79.45
2022-10-07T03:33:52.150Z,79.41
2022-10-07T03:36:20.835Z,79.58
2022-10-07T03:38:49.910Z,79.42
2022-10-07T03:41:19.432Z,79.06
2022-10-07T03:43:48.818Z,79.03
2022-10-07T03:46:19.919Z,79.08
2022-10-07T03:48:48.161Z,78.98
2022-10-07T03:51:16.424Z,78.86
2022-10-07T03:53:44.389Z,78.68
2022-10-07T03:56:12.870Z,78.71
2022-10-07T03:58:42.476Z,78.80
2022-10-07T04:01:16.714Z,78.72
2022-10-07T04:03:50.266Z,78.59
2022-10-07T04:06:19.493Z,78.59
2022-10-07T04:08:51.588Z,78.51
2022-10-07T04:11:19.933Z,78.38
2022-10-07T04:13:48.518Z,78.29
2022-10-07T04:16:20.033Z,78.31
2022-10-07T04:18:48.754Z,78.45
2022-10-07T04:21:17.163Z,78.62
2022-10-07T04:23:45.209Z,78.58
2022-10-07T04:26:13.585Z,78.59
2022-10-07T04:28:44.890Z,78.59
2022-10-07T04:31:15.189Z,78.56
2022-10-07T04:33:46.624Z,78.72
2022-10-07T04:36:19.698Z,78.88
2022-10-07T04:38:54.631Z,78.67
2022-10-07T04:41:26.439Z,78.51
2022-10-07T04:43:57.883Z,78.48
2022-10-07T04:46:28.560Z,78.65
2022-10-07T04:49:05.250Z,78.78
2022-10-07T04:51:33.626Z,78.85
2022-10-07T04:54:02.097Z,78.99
2022-10-07T04:56:34.684Z,79.16
2022-10-07T04:59:05.215Z,79.39
2022-10-07T05:01:33.503Z,79.24
2022-10-07T05:04:01.468Z,79.17
2022-10-07T05:06:30.148Z,79.10
2022-10-07T05:08:58.052Z,79.16
2022-10-07T05:11:26.533Z,79.09
2022-10-07T05:14:02.179Z,79.01
2022-10-07T05:16:31.248Z,78.93
2022-10-07T05:18:59.957Z,78.95
2022-10-07T05:21:27.997Z,78.78
2022-10-07T05:23:56.172Z,78.79
2022-10-07T05:26:28.032Z,78.84
2022-10-07T05:28:58.596Z,78.94
2022-10-07T05:31:31.832Z,78.80
2022-10-07T05:34:02.283Z,78.91
2022-10-07T05:36:30.564Z,79.34
2022-10-07T05:39:00.683Z,79.02
2022-10-07T05:41:45.636Z,78.35
2022-10-07T05:44:15.713Z,78.14
2022-10-07T05:46:44.046Z,77.53
2022-10-07T05:49:12.328Z,77.10
2022-10-07T05:51:41.726Z,76.60
2022-10-07T05:54:09.880Z,76.26
2022-10-07T05:56:41.455Z,75.59
2022-10-07T05:59:10.529Z,74.60
2022-10-07T06:01:43.027Z,73.54
2022-10-07T06:04:15.010Z,72.00
2022-10-07T06:06:45.291Z,70.64
2022-10-07T06:09:32.653Z,68.95
2022-10-07T06:12:22.850Z,67.80
2022-10-07T06:14:51.636Z,66.50
2022-10-07T06:17:19.518Z,65.41
2022-10-07T06:19:48.086Z,64.11
2022-10-07T06:22:16.966Z,63.02
2022-10-07T06:24:45.595Z,61.59
2022-10-07T06:27:13.630Z,60.05
2022-10-07T06:29:43.345Z,58.54
2022-10-07T06:32:11.313Z,57.17
2022-10-07T06:34:40.101Z,55.97
2022-10-07T06:37:08.030Z,55.35
2022-10-07T06:39:35.957Z,54.86
2022-10-07T06:42:03.965Z,54.31
2022-10-07T06:45:08.460Z,54.52
2022-10-07T06:47:37.118Z,54.74
2022-10-07T06:50:05.907Z,55.15
2022-10-07T06:52:37.901Z,55.42
2022-10-07T06:55:08.260Z,55.94
2022-10-07T06:57:52.142Z,55.31
2022-10-07T07:00:20.879Z,55.72
2022-10-07T07:02:49.197Z,55.58
2022-10-07T07:05:17.697Z,54.85
2022-10-07T07:07:46.859Z,54.13
2022-10-07T07:10:15.369Z,52.43
2022-10-07T07:12:46.395Z,50.26
2022-10-07T07:15:15.099Z,48.39
2022-10-07T07:17:43.664Z,46.67
2022-10-07T07:20:12.777Z,45.46
2022-10-07T07:22:41.877Z,43.63
2022-10-07T07:25:10.455Z,42.76
2022-10-07T07:27:39.139Z,42.87
2022-10-07T07:30:08.753Z,39.53
2022-10-07T07:32:36.793Z,37.59
2022-10-07T07:35:05.776Z,36.63
2022-10-07T07:37:34.090Z,35.00
2022-10-07T07:40:02.263Z,34.01
2022-10-07T07:42:31.577Z,32.54
2022-10-07T07:45:00.763Z,31.18
2022-10-07T07:47:28.835Z,30.59
2022-10-07T07:49:57.114Z,27.35
2022-10-07T07:52:29.692Z,26.19
2022-10-07T07:54:59.289Z,25.44
2022-10-07T07:57:29.205Z,23.59
2022-10-07T07:59:58.860Z,23.47
2022-10-07T08:02:27.965Z,21.46
2022-10-07T08:04:56.044Z,22.60
2022-10-07T08:07:24.885Z,20.65
2022-10-07T08:09:52.834Z,21.67
2022-10-07T08:12:22.307Z,21.25
2022-10-07T08:14:52.272Z,20.53
2022-10-07T08:17:22.262Z,19.84
2022-10-07T08:19:51.076Z,19.20
2022-10-07T08:22:19.438Z,18.32
2022-10-07T08:24:49.471Z,18.28
2022-10-07T08:27:18.773Z,18.27
2022-10-07T08:29:46.780Z,19.21
2022-10-07T08:32:14.612Z,17.47
2022-10-07T08:34:43.030Z,16.76
2022-10-07T08:37:11.060Z,16.62
2022-10-07T08:39:39.001Z,16.28
2022-10-07T08:42:29.742Z,15.39
2022-10-07T08:44:57.885Z,15.62
2022-10-07T08:47:35.195Z,14.67
2022-10-07T08:50:16.683Z,14.75
2022-10-07T08:52:52.542Z,13.81
2022-10-07T08:55:49.791Z,13.72
2022-10-07T08:59:00.873Z,13.93
2022-10-07T09:01:29.509Z,13.39
2022-10-07T09:04:12.777Z,13.44
2022-10-07T09:07:04.049Z,14.66
2022-10-07T09:09:41.082Z,15.73
2022-10-07T09:12:17.019Z,17.01
2022-10-07T09:14:48.372Z,17.56
2022-10-07T09:17:41.369Z,18.49
2022-10-07T09:20:18.024Z,19.30
2022-10-07T09:22:57.471Z,20.18
2022-10-07T09:25:28.400Z,21.45
2022-10-07T09:27:57.402Z,22.68
2022-10-07T09:30:28.231Z,23.89
2022-10-07T09:32:58.298Z,24.64
2022-10-07T09:35:29.908Z,25.48
2022-10-07T09:38:01.146Z,26.24
2022-10-07T09:40:37.563Z,27.19
2022-10-07T09:43:14.150Z,27.51
2022-10-07T09:45:47.095Z,27.40
2022-10-07T09:48:22.337Z,27.89
2022-10-07T09:50:50.313Z,28.92
2022-10-07T09:53:26.052Z,28.80
2022-10-07T09:55:55.475Z,29.11
2022-10-07T09:58:28.551Z,30.13
2022-10-07T10:01:03.038Z,30.51
2022-10-07T10:03:38.097Z,30.47
2022-10-07T10:06:08.894Z,30.07
2022-10-07T10:08:40.103Z,30.22
2022-10-07T10:11:28.654Z,30.17
2022-10-07T10:13:56.722Z,28.90
2022-10-07T10:16:24.793Z,29.74
2022-10-07T10:19:02.803Z,30.09
2022-10-07T10:21:40.185Z,30.02
2022-10-07T10:24:14.604Z,29.92
2022-10-07T10:27:03.788Z,30.49
2022-10-07T10:29:43.494Z,30.90
2022-10-07T10:32:32.433Z,31.59
2022-10-07T10:35:27.739Z,32.22
2022-10-07T10:38:38.354Z,32.49
2022-10-07T10:41:30.796Z,32.46
2022-10-07T10:44:48.230Z,33.22
2022-10-07T10:47:44.051Z,33.64
2022-10-07T10:50:31.062Z,33.62
2022-10-07T10:53:09.122Z,34.37
2022-10-07T10:55:43.593Z,34.63
2022-10-07T10:58:30.303Z,34.09
2022-10-07T11:01:18.432Z,34.08
2022-10-07T11:04:11.282Z,34.16
2022-10-07T11:06:44.696Z,34.52
2022-10-07T11:09:38.622Z,34.73
2022-10-07T11:12:26.335Z,34.78
2022-10-07T11:15:02.588Z,34.29
2022-10-07T11:17:36.252Z,34.45
2022-10-07T11:20:27.897Z,34.30
2022-10-07T11:23:00.676Z,34.81
2022-10-07T11:25:43.169Z,34.82
2022-10-07T11:28:21.785Z,35.19
2022-10-07T11:31:11.506Z,35.02
2022-10-07T11:33:47.260Z,35.47
2022-10-07T11:36:21.661Z,35.36
2022-10-07T11:38:52.889Z,34.85
2022-10-07T11:41:26.808Z,35.09
2022-10-07T11:43:58.855Z,35.60
2022-10-07T11:46:40.095Z,35.48
2022-10-07T11:49:11.203Z,35.40
2022-10-07T11:52:05.225Z,35.30
2022-10-07T11:54:53.043Z,34.76
2022-10-07T11:57:24.574Z,34.61
2022-10-07T12:00:02.306Z,33.92
2022-10-07T12:02:46.538Z,32.86
2022-10-07T12:05:47.871Z,32.07
2022-10-07T12:08:32.289Z,29.87
2022-10-07T12:11:12.587Z,27.52
2022-10-07T12:13:43.939Z,26.40
2022-10-07T12:16:24.240Z,25.71
2022-10-07T12:19:07.559Z,24.78
2022-10-07T12:22:00.381Z,23.89
2022-10-07T12:24:33.465Z,23.36
2022-10-07T12:27:23.553Z,23.10
2022-10-07T12:30:02.772Z,22.54
2022-10-07T12:32:42.906Z,21.84
2022-10-07T12:35:37.126Z,21.81
2022-10-07T12:38:17.862Z,21.41
2022-10-07T12:40:57.951Z,21.32
2022-10-07T12:43:29.800Z,21.54
2022-10-07T12:45:59.696Z,21.83
2022-10-07T12:48:40.299Z,22.61
2022-10-07T12:51:19.422Z,23.59
2022-10-07T12:53:50.476Z,24.02
2022-10-07T12:56:23.023Z,24.75
2022-10-07T12:59:18.093Z,25.34
2022-10-07T13:02:18.757Z,26.93
2022-10-07T13:04:58.949Z,27.38
2022-10-07T13:07:50.151Z,28.21
2022-10-07T13:10:27.132Z,29.12
2022-10-07T13:13:06.900Z,29.43
2022-10-07T13:16:10.234Z,30.01
2022-10-07T13:18:48.078Z,30.73
2022-10-07T13:21:24.547Z,31.46
2022-10-07T13:23:54.372Z,32.24
2022-10-07T13:26:24.069Z,33.07
2022-10-07T13:29:01.270Z,33.57
2022-10-07T13:31:31.636Z,34.04
2022-10-07T13:34:14.194Z,34.29
2022-10-07T13:36:46.258Z,35.09
2022-10-07T13:39:21.855Z,35.76
2022-10-07T13:41:55.897Z,36.41
2022-10-07T13:44:28.514Z,36.49
2022-10-07T13:47:01.540Z,36.68
2022-10-07T13:49:33.449Z,36.84
2022-10-07T13:52:05.615Z,37.67
2022-10-07T13:54:34.506Z,37.89
2022-10-07T13:57:02.988Z,38.01
2022-10-07T13:59:36.706Z,39.07
2022-10-07T14:02:08.134Z,38.92
2022-10-07T14:04:49.632Z,39.01
2022-10-07T14:07:21.227Z,39.17
2022-10-07T14:09:56.531Z,39.98
2022-10-07T14:12:32.906Z,39.90
2022-10-07T14:15:23.240Z,39.99
2022-10-07T14:17:55.459Z,40.53
2022-10-07T14:20:31.536Z,40.84
2022-10-07T14:23:06.044Z,41.01
2022-10-07T14:25:55.316Z,40.74
2022-10-07T14:28:23.496Z,41.81
2022-10-07T14:31:39.192Z,41.73
2022-10-07T14:34:37.468Z,42.15
2022-10-07T14:37:28.325Z,43.09
2022-10-07T14:39:59.024Z,43.79
2022-10-07T14:42:36.320Z,44.47
2022-10-07T14:45:09.619Z,43.74
2022-10-07T14:47:41.654Z,44.88
2022-10-07T14:50:10.592Z,45.95
2022-10-07T14:52:46.184Z,46.36
2022-10-07T14:55:20.717Z,47.40
2022-10-07T14:57:48.995Z,47.17
2022-10-07T15:00:20.327Z,47.64
2022-10-07T15:02:53.349Z,48.52
2022-10-07T15:05:23.075Z,48.91
2022-10-07T15:07:51.342Z,49.39
2022-10-07T15:10:22.313Z,49.86
2022-10-07T15:12:50.448Z,50.44
2022-10-07T15:15:19.448Z,50.99
2022-10-07T15:17:48.226Z,51.41
2022-10-07T15:20:17.630Z,51.70
2022-10-07T15:22:46.137Z,51.97
2022-10-07T15:25:15.509Z,52.41
2022-10-07T15:27:44.612Z,52.54
2022-10-07T15:30:13.314Z,52.88
2022-10-07T15:32:41.700Z,53.37
2022-10-07T15:35:10.058Z,53.54
2022-10-07T15:37:38.128Z,53.86
2022-10-07T15:40:07.782Z,54.20
2022-10-07T15:42:35.889Z,54.06
2022-10-07T15:45:04.032Z,54.78
2022-10-07T15:47:34.616Z,55.47
2022-10-07T15:50:02.602Z,55.76
2022-10-07T15:52:30.682Z,56.22
2022-10-07T15:54:59.997Z,56.90
2022-10-07T15:57:29.564Z,57.54
2022-10-07T15:59:57.610Z,57.63
2022-10-07T16:02:25.561Z,57.60
2022-10-07T16:04:53.474Z,58.17
2022-10-07T16:07:21.788Z,58.64
2022-10-07T16:09:49.751Z,58.85
2022-10-07T16:12:18.357Z,59.14
2022-10-07T16:14:47.532Z,59.22
2022-10-07T16:17:15.645Z,59.50
2022-10-07T16:19:44.478Z,59.41
2022-10-07T16:22:12.465Z,59.40
2022-10-07T16:24:42.375Z,60.13
2022-10-07T16:27:10.451Z,60.51
2022-10-07T16:29:56.827Z,60.71
2022-10-07T16:32:24.940Z,60.65
2022-10-07T16:34:52.892Z,61.26
2022-10-07T16:37:20.776Z,61.73
2022-10-07T16:39:48.700Z,62.13
2022-10-07T16:42:16.650Z,62.50
2022-10-07T16:44:49.886Z,62.77
2022-10-07T16:47:18.607Z,63.00
2022-10-07T16:49:46.552Z,62.89
2022-10-07T16:52:14.472Z,62.76
2022-10-07T16:54:43.306Z,62.74
2022-10-07T16:57:11.679Z,62.65
2022-10-07T16:59:39.840Z,62.87
2022-10-07T17:02:08.606Z,63.03
2022-10-07T17:04:36.428Z,62.95
2022-10-07T17:07:06.016Z,63.13
2022-10-07T17:09:34.086Z,64.02
2022-10-07T17:12:02.263Z,64.07
2022-10-07T17:14:32.075Z,64.20
2022-10-07T17:17:00.979Z,64.44
2022-10-07T17:19:29.207Z,64.63
2022-10-07T17:21:59.592Z,64.89
2022-10-07T17:24:27.554Z,65.11
2022-10-07T17:26:56.339Z,65.25
2022-10-07T17:29:29.726Z,65.71
2022-10-07T17:31:57.585Z,66.03
2022-10-07T17:34:25.662Z,66.06
2022-10-07T17:36:54.367Z,66.22
2022-10-07T17:39:22.498Z,66.65
2022-10-07T17:41:50.364Z,67.19
2022-10-07T17:44:18.642Z,67.31
2022-10-07T17:46:49.203Z,67.38
2022-10-07T17:49:17.370Z,67.44
2022-10-07T17:51:45.543Z,67.58
2022-10-07T17:54:15.157Z,67.98
2022-10-07T17:56:44.669Z,68.47
2022-10-07T17:59:12.935Z,68.78
2022-10-07T18:01:41.723Z,69.04
2022-10-07T18:04:13.565Z,69.23
2022-10-07T18:06:46.996Z,69.48
2022-10-07T18:09:18.647Z,68.98
2022-10-07T18:12:05.223Z,69.33
2022-10-07T18:14:53.979Z,69.49
2022-10-07T18:17:24.702Z,69.07
2022-10-07T18:19:53.267Z,68.98
2022-10-07T18:22:21.902Z,70.02
2022-10-07T18:24:50.198Z,70.66
2022-10-07T18:27:18.335Z,71.34
2022-10-07T18:29:46.493Z,71.42
2022-10-07T18:32:14.561Z,70.81
2022-10-07T18:34:42.734Z,70.31
2022-10-07T18:37:10.974Z,70.29
2022-10-07T18:39:39.303Z,70.92
2022-10-07T18:42:07.550Z,71.20
2022-10-07T18:44:35.824Z,71.18
2022-10-07T18:47:03.911Z,70.94
2022-10-07T18:49:31.877Z,70.81
2022-10-07T18:52:01.797Z,70.84
2022-10-07T18:54:29.656Z,70.91
2022-10-07T18:56:57.732Z,71.13
2022-10-07T18:59:25.809Z,71.26
2022-10-07T19:01:54.125Z,71.40
2022-10-07T19:04:22.255Z,71.30
2022-10-07T19:06:50.531Z,71.42
2022-10-07T19:09:20.765Z,71.76
2022-10-07T19:11:49.477Z,72.00
2022-10-07T19:14:17.735Z,72.12
2022-10-07T19:16:49.397Z,71.93
2022-10-07T19:19:22.904Z,72.16
2022-10-07T19:21:55.302Z,71.98
2022-10-07T19:24:43.831Z,71.85
2022-10-07T19:27:12.389Z,71.67
2022-10-07T19:29:40.317Z,71.65
2022-10-07T19:32:09.111Z,71.52
2022-10-07T19:34:37.345Z,71.87
2022-10-07T19:37:06.709Z,72.22
2022-10-07T19:39:34.824Z,72.46
2022-10-07T19:42:04.087Z,72.49
2022-10-07T19:44:33.676Z,72.66
2022-10-07T19:47:01.767Z,72.74
2022-10-07T19:49:29.840Z,72.84
2022-10-07T19:51:57.752Z,72.76
2022-10-07T19:54:25.777Z,72.67
2022-10-07T19:56:53.864Z,72.63
2022-10-07T19:59:22.424Z,72.43
2022-10-07T20:01:52.115Z,72.54
2022-10-07T20:04:21.089Z,72.70
2022-10-07T20:06:49.235Z,72.52
2022-10-07T20:09:19.381Z,72.50
2022-10-07T20:11:47.939Z,72.33
2022-10-07T20:14:16.268Z,72.65
2022-10-07T20:16:44.854Z,72.61
2022-10-07T20:19:15.869Z,72.65
2022-10-07T20:21:45.433Z,72.72
2022-10-07T20:24:15.361Z,72.85
2022-10-07T20:26:44.454Z,72.84
2022-10-07T20:29:15.410Z,73.01
2022-10-07T20:31:44.856Z,73.53
2022-10-07T20:34:15.720Z,74.58
2022-10-07T20:36:44.310Z,74.52
2022-10-07T20:39:35.656Z,74.19
2022-10-07T20:42:28.899Z,73.93
2022-10-07T20:45:00.187Z,73.89
2022-10-07T20:47:33.766Z,74.09
2022-10-07T20:50:02.962Z,74.24
2022-10-07T20:52:34.802Z,74.46
2022-10-07T20:55:03.183Z,74.13
2022-10-07T20:57:38.126Z,74.06
2022-10-07T21:00:10.370Z,74.15
2022-10-07T21:02:38.498Z,74.16
2022-10-07T21:05:08.166Z,74.42
2022-10-07T21:07:36.037Z,74.10
2022-10-07T21:10:04.630Z,74.07
2022-10-07T21:12:32.693Z,74.12
2022-10-07T21:15:01.284Z,74.04
2022-10-07T21:17:29.353Z,74.00
2022-10-07T21:19:57.492Z,74.34
2022-10-07T21:22:25.679Z,74.38
2022-10-07T21:24:53.871Z,74.36
2022-10-07T21:27:21.948Z,74.50
2022-10-07T21:29:50.410Z,74.72
2022-10-07T21:32:18.818Z,74.99
2022-10-07T21:34:46.775Z,75.00
2022-10-07T21:37:14.791Z,74.89
2022-10-07T21:39:43.223Z,75.14
2022-10-07T21:42:11.398Z,75.15
2022-10-07T21:44:39.286Z,75.09
2022-10-07T21:47:07.456Z,75.02
2022-10-07T21:49:35.361Z,75.15
2022-10-07T21:52:03.295Z,75.50
2022-10-07T21:54:31.266Z,75.66
2022-10-07T21:56:59.215Z,75.89
2022-10-07T21:59:27.294Z,75.79
2022-10-07T22:01:55.563Z,75.86
2022-10-07T22:04:24.521Z,75.79
2022-10-07T22:07:10.955Z,75.92
2022-10-07T22:09:38.929Z,75.82
2022-10-07T22:12:07.096Z,75.87
2022-10-07T22:14:35.260Z,75.89
2022-10-07T22:17:03.845Z,75.83
2022-10-07T22:19:31.829Z,75.59
2022-10-07T22:22:00.111Z,75.68
2022-10-07T22:24:28.278Z,75.78
2022-10-07T22:26:56.660Z,75.86
2022-10-07T22:29:25.277Z,75.77
2022-10-07T22:31:54.032Z,75.56
2022-10-07T22:34:42.923Z,75.63
2022-10-07T22:37:10.860Z,75.51
2022-10-07T22:39:38.934Z,75.50
2022-10-07T22:42:07.007Z,75.59
2022-10-07T22:44:35.077Z,75.80
2022-10-07T22:47:03.153Z,76.20
2022-10-07T22:49:31.221Z,76.22
2022-10-07T22:52:00.313Z,76.41
2022-10-07T22:54:28.513Z,76.36
2022-10-07T22:56:56.664Z,76.36
2022-10-07T22:59:24.735Z,76.22
2022-10-07T23:01:53.219Z,76.29
2022-10-07T23:04:21.774Z,76.20
2022-10-07T23:06:50.087Z,75.88
2022-10-07T23:09:18.363Z,76.23
2022-10-07T23:11:46.764Z,76.27
2022-10-07T23:14:15.013Z,76.09
2022-10-07T23:16:44.839Z,76.17
2022-10-07T23:19:13.204Z,76.38
2022-10-07T23:21:41.218Z,75.96
2022-10-07T23:24:10.480Z,76.05
2022-10-07T23:26:38.875Z,76.81
2022-10-07T23:29:07.815Z,77.29
2022-10-07T23:31:36.157Z,77.17
2022-10-07T23:34:06.553Z,77.25
2022-10-07T23:36:34.952Z,77.17
2022-10-07T23:39:03.616Z,77.02
2022-10-07T23:41:32.509Z,77.32
2022-10-07T23:44:04.777Z,77.25
2022-10-07T23:46:35.792Z,77.06
2022-10-07T23:49:04.938Z,77.07
2022-10-07T23:51:34.013Z,77.24
2022-10-07T23:54:03.925Z,77.15
2022-10-07T23:56:33.205Z,77.20
2022-10-07T23:59:02.161Z,77.46
